sensor_id;sensor_type;location;lat;lon;timestamp;pressure;altitude;pressure_sealevel;temperature;humidity
32298;BME280;18782;48.984;8.548;2023-03-12T00:02:15;99707.25;;;-0.58;85.50
32298;BME280;18782;48.984;8.548;2023-03-12T00:04:44;99702.97;;;-0.59;85.71
32298;BME280;18782;48.984;8.548;2023-03-12T00:07:12;99704.53;;;-0.61;85.44
32298;BME280;18782;48.984;8.548;2023-03-12T00:09:39;99706.09;;;-0.63;84.58
32298;BME280;18782;48.984;8.548;2023-03-12T00:12:08;99698.31;;;-0.66;85.04
32298;BME280;18782;48.984;8.548;2023-03-12T00:14:35;99699.84;;;-0.68;85.23
32298;BME280;18782;48.984;8.548;2023-03-12T00:17:03;99699.75;;;-0.70;85.40
32298;BME280;18782;48.984;8.548;2023-03-12T00:19:31;99696.38;;;-0.70;85.20
32298;BME280;18782;48.984;8.548;2023-03-12T00:22:00;99696.38;;;-0.70;85.88
32298;BME280;18782;48.984;8.548;2023-03-12T00:24:27;99701.63;;;-0.67;84.89
32298;BME280;18782;48.984;8.548;2023-03-12T00:26:55;99703.16;;;-0.69;84.78
32298;BME280;18782;48.984;8.548;2023-03-12T00:29:23;99697.25;;;-0.70;86.32
32298;BME280;18782;48.984;8.548;2023-03-12T00:31:50;99695.59;;;-0.69;85.81
32298;BME280;18782;48.984;8.548;2023-03-12T00:34:18;99700.63;;;-0.69;85.00
32298;BME280;18782;48.984;8.548;2023-03-12T00:36:46;99698.50;;;-0.63;86.89
32298;BME280;18782;48.984;8.548;2023-03-12T00:39:14;99696.00;;;-0.50;89.92
32298;BME280;18782;48.984;8.548;2023-03-12T00:41:42;99701.06;;;-0.50;86.94
32298;BME280;18782;48.984;8.548;2023-03-12T00:44:10;99693.38;;;-0.51;86.08
32298;BME280;18782;48.984;8.548;2023-03-12T00:46:37;99694.81;;;-0.55;85.91
32298;BME280;18782;48.984;8.548;2023-03-12T00:49:05;99681.41;;;-0.54;85.11
32298;BME280;18782;48.984;8.548;2023-03-12T00:51:33;99684.63;;;-0.57;85.15
32298;BME280;18782;48.984;8.548;2023-03-12T00:54:00;99687.16;;;-0.57;85.32
32298;BME280;18782;48.984;8.548;2023-03-12T00:56:30;99675.47;;;-0.55;85.94
32298;BME280;18782;48.984;8.548;2023-03-12T00:58:58;99685.66;;;-0.53;85.40
32298;BME280;18782;48.984;8.548;2023-03-12T01:01:25;99694.44;;;-0.48;85.60
32298;BME280;18782;48.984;8.548;2023-03-12T01:03:53;99687.22;;;-0.42;85.36
32298;BME280;18782;48.984;8.548;2023-03-12T01:06:22;99689.97;;;-0.39;85.48
32298;BME280;18782;48.984;8.548;2023-03-12T01:08:50;99693.28;;;-0.40;84.91
32298;BME280;18782;48.984;8.548;2023-03-12T01:11:19;99687.34;;;-0.40;84.98
32298;BME280;18782;48.984;8.548;2023-03-12T01:13:48;99689.75;;;-0.42;84.92
32298;BME280;18782;48.984;8.548;2023-03-12T01:16:16;99686.25;;;-0.44;85.58
32298;BME280;18782;48.984;8.548;2023-03-12T01:18:44;99693.84;;;-0.44;85.35
32298;BME280;18782;48.984;8.548;2023-03-12T01:21:11;99692.88;;;-0.46;85.41
32298;BME280;18782;48.984;8.548;2023-03-12T01:23:39;99697.75;;;-0.49;85.08
32298;BME280;18782;48.984;8.548;2023-03-12T01:26:07;99692.78;;;-0.47;85.86
32298;BME280;18782;48.984;8.548;2023-03-12T01:28:34;99692.69;;;-0.49;85.78
32298;BME280;18782;48.984;8.548;2023-03-12T01:31:08;99694.25;;;-0.51;85.68
32298;BME280;18782;48.984;8.548;2023-03-12T01:33:36;99695.59;;;-0.56;86.30
32298;BME280;18782;48.984;8.548;2023-03-12T01:36:04;99695.59;;;-0.56;86.94
32298;BME280;18782;48.984;8.548;2023-03-12T01:38:33;99703.97;;;-0.57;87.11
32298;BME280;18782;48.984;8.548;2023-03-12T01:41:00;99703.75;;;-0.60;85.94
32298;BME280;18782;48.984;8.548;2023-03-12T01:43:30;99705.34;;;-0.62;85.94
32298;BME280;18782;48.984;8.548;2023-03-12T01:46:20;99697.13;;;-0.58;86.29
32298;BME280;18782;48.984;8.548;2023-03-12T01:48:53;99686.28;;;-0.57;86.96
32298;BME280;18782;48.984;8.548;2023-03-12T01:51:24;99685.66;;;-0.53;87.30
32298;BME280;18782;48.984;8.548;2023-03-12T01:53:55;99681.47;;;-0.53;86.31
32298;BME280;18782;48.984;8.548;2023-03-12T01:56:27;99676.44;;;-0.53;87.07
32298;BME280;18782;48.984;8.548;2023-03-12T01:58:59;99684.81;;;-0.54;87.13
32298;BME280;18782;48.984;8.548;2023-03-12T02:01:30;99677.34;;;-0.52;87.13
32298;BME280;18782;48.984;8.548;2023-03-12T02:03:59;99677.22;;;-0.54;87.74
32298;BME280;18782;48.984;8.548;2023-03-12T02:06:32;99669.84;;;-0.50;86.30
32298;BME280;18782;48.984;8.548;2023-03-12T02:09:02;99662.56;;;-0.46;86.65
32298;BME280;18782;48.984;8.548;2023-03-12T02:11:32;99658.28;;;-0.47;87.00
32298;BME280;18782;48.984;8.548;2023-03-12T02:14:00;99650.47;;;-0.50;86.56
32298;BME280;18782;48.984;8.548;2023-03-12T02:16:29;99655.53;;;-0.50;86.90
32298;BME280;18782;48.984;8.548;2023-03-12T02:18:59;99656.31;;;-0.51;86.08
32298;BME280;18782;48.984;8.548;2023-03-12T02:21:29;99671.59;;;-0.49;86.15
32298;BME280;18782;48.984;8.548;2023-03-12T02:24:04;99657.50;;;-0.46;86.35
32298;BME280;18782;48.984;8.548;2023-03-12T02:26:36;99666.03;;;-0.44;86.50
32298;BME280;18782;48.984;8.548;2023-03-12T02:29:06;99662.56;;;-0.46;85.78
32298;BME280;18782;48.984;8.548;2023-03-12T02:31:38;99667.78;;;-0.43;85.97
32298;BME280;18782;48.984;8.548;2023-03-12T02:34:08;99667.13;;;-0.40;86.75
32298;BME280;18782;48.984;8.548;2023-03-12T02:36:36;99655.25;;;-0.41;86.27
32298;BME280;18782;48.984;8.548;2023-03-12T02:39:04;99657.16;;;-0.37;85.83
32298;BME280;18782;48.984;8.548;2023-03-12T02:41:37;99653.00;;;-0.37;85.68
32298;BME280;18782;48.984;8.548;2023-03-12T02:44:09;99650.56;;;-0.35;85.81
32298;BME280;18782;48.984;8.548;2023-03-12T02:46:41;99656.69;;;-0.32;86.22
32298;BME280;18782;48.984;8.548;2023-03-12T02:49:10;99648.34;;;-0.31;85.45
32298;BME280;18782;48.984;8.548;2023-03-12T02:59:35;99644.03;;;-0.18;85.19
32298;BME280;18782;48.984;8.548;2023-03-12T03:02:04;99642.66;;;-0.13;85.71
32298;BME280;18782;48.984;8.548;2023-03-12T03:04:32;99641.28;;;-0.08;86.00
32298;BME280;18782;48.984;8.548;2023-03-12T03:07:01;99647.41;;;-0.05;85.65
32298;BME280;18782;48.984;8.548;2023-03-12T03:09:28;99641.66;;;-0.02;86.11
32298;BME280;18782;48.984;8.548;2023-03-12T03:11:56;99641.94;;;0.03;85.34
32298;BME280;18782;48.984;8.548;2023-03-12T03:14:26;99654.97;;;0.09;85.52
32298;BME280;18782;48.984;8.548;2023-03-12T03:16:55;99647.84;;;0.16;85.11
32298;BME280;18782;48.984;8.548;2023-03-12T03:19:23;99649.75;;;0.20;84.35
32298;BME280;18782;48.984;8.548;2023-03-12T03:30:17;99623.19;;;0.27;84.56
32298;BME280;18782;48.984;8.548;2023-03-12T03:32:50;99632.78;;;0.33;85.05
32298;BME280;18782;48.984;8.548;2023-03-12T03:35:18;99626.75;;;0.31;84.45
32298;BME280;18782;48.984;8.548;2023-03-12T03:37:47;99625.19;;;0.33;84.79
32298;BME280;18782;48.984;8.548;2023-03-12T03:40:15;99616.31;;;0.39;85.07
32298;BME280;18782;48.984;8.548;2023-03-12T03:42:43;99625.84;;;0.43;84.57
32298;BME280;18782;48.984;8.548;2023-03-12T03:45:11;99633.78;;;0.49;83.91
32298;BME280;18782;48.984;8.548;2023-03-12T03:47:41;99622.78;;;0.49;84.39
32298;BME280;18782;48.984;8.548;2023-03-12T03:50:11;99621.41;;;0.54;84.32
32298;BME280;18782;48.984;8.548;2023-03-12T03:52:38;99622.28;;;0.55;83.61
32298;BME280;18782;48.984;8.548;2023-03-12T03:55:07;99613.97;;;0.57;83.87
32298;BME280;18782;48.984;8.548;2023-03-12T03:57:36;99623.69;;;0.64;83.96
32298;BME280;18782;48.984;8.548;2023-03-12T04:00:05;99627.16;;;0.66;83.43
32298;BME280;18782;48.984;8.548;2023-03-12T04:02:39;99615.56;;;0.70;82.90
32298;BME280;18782;48.984;8.548;2023-03-12T04:05:10;99617.56;;;0.75;82.33
32298;BME280;18782;48.984;8.548;2023-03-12T04:07:38;99625.78;;;0.71;82.63
32298;BME280;18782;48.984;8.548;2023-03-12T04:10:07;99618.38;;;0.74;82.90
32298;BME280;18782;48.984;8.548;2023-03-12T04:12:35;99615.66;;;0.71;83.25
32298;BME280;18782;48.984;8.548;2023-03-12T04:15:04;99618.25;;;0.73;83.74
32298;BME280;18782;48.984;8.548;2023-03-12T04:17:32;99631.03;;;0.74;84.19
32298;BME280;18782;48.984;8.548;2023-03-12T04:20:01;99632.59;;;0.72;83.21
32298;BME280;18782;48.984;8.548;2023-03-12T04:22:31;99636.97;;;0.75;83.13
32298;BME280;18782;48.984;8.548;2023-03-12T04:24:59;99638.63;;;0.74;83.62
32298;BME280;18782;48.984;8.548;2023-03-12T04:27:27;99636.19;;;0.76;83.17
32298;BME280;18782;48.984;8.548;2023-03-12T04:29:55;99636.19;;;0.76;83.61
32298;BME280;18782;48.984;8.548;2023-03-12T04:32:23;99636.44;;;0.81;82.60
32298;BME280;18782;48.984;8.548;2023-03-12T04:34:54;99635.22;;;0.89;83.40
32298;BME280;18782;48.984;8.548;2023-03-12T04:37:22;99631.72;;;0.87;82.31
32298;BME280;18782;48.984;8.548;2023-03-12T04:39:51;99631.06;;;0.89;82.16
32298;BME280;18782;48.984;8.548;2023-03-12T04:42:19;99630.34;;;0.92;82.51
32298;BME280;18782;48.984;8.548;2023-03-12T04:44:49;99638.88;;;0.94;82.34
32298;BME280;18782;48.984;8.548;2023-03-12T04:47:18;99630.88;;;1.01;82.02
32298;BME280;18782;48.984;8.548;2023-03-12T04:49:45;99632.63;;;1.02;82.29
32298;BME280;18782;48.984;8.548;2023-03-12T04:52:13;99638.09;;;1.10;82.00
32298;BME280;18782;48.984;8.548;2023-03-12T04:54:43;99631.41;;;1.10;82.77
32298;BME280;18782;48.984;8.548;2023-03-12T04:57:14;99626.66;;;1.16;82.56
32298;BME280;18782;48.984;8.548;2023-03-12T04:59:42;99639.16;;;1.13;82.96
32298;BME280;18782;48.984;8.548;2023-03-12T05:02:10;99639.94;;;1.12;83.54
32298;BME280;18782;48.984;8.548;2023-03-12T05:04:39;99634.44;;;1.19;82.40
32298;BME280;18782;48.984;8.548;2023-03-12T05:07:06;99629.34;;;1.19;83.00
32298;BME280;18782;48.984;8.548;2023-03-12T05:09:34;99624.53;;;1.24;83.50
32298;BME280;18782;48.984;8.548;2023-03-12T05:12:03;99628.75;;;1.23;82.82
32298;BME280;18782;48.984;8.548;2023-03-12T05:14:33;99627.00;;;1.22;82.49
32298;BME280;18782;48.984;8.548;2023-03-12T05:17:00;99628.94;;;1.26;83.37
32298;BME280;18782;48.984;8.548;2023-03-12T05:19:28;99629.28;;;1.33;83.62
32298;BME280;18782;48.984;8.548;2023-03-12T05:21:55;99618.94;;;1.29;84.48
32298;BME280;18782;48.984;8.548;2023-03-12T05:24:24;99617.75;;;1.23;83.48
32298;BME280;18782;48.984;8.548;2023-03-12T05:26:52;99615.91;;;1.20;83.69
32298;BME280;18782;48.984;8.548;2023-03-12T05:29:22;99619.59;;;1.25;84.49
32298;BME280;18782;48.984;8.548;2023-03-12T05:31:53;99617.06;;;1.25;83.97
32298;BME280;18782;48.984;8.548;2023-03-12T05:34:21;99613.19;;;1.17;84.12
32298;BME280;18782;48.984;8.548;2023-03-12T05:36:49;99610.22;;;1.24;84.86
32298;BME280;18782;48.984;8.548;2023-03-12T05:39:21;99615.47;;;1.27;84.21
32298;BME280;18782;48.984;8.548;2023-03-12T05:41:49;99611.78;;;1.22;85.05
32298;BME280;18782;48.984;8.548;2023-03-12T05:44:19;99608.31;;;1.20;85.04
32298;BME280;18782;48.984;8.548;2023-03-12T05:46:52;99610.41;;;1.27;86.16
32298;BME280;18782;48.984;8.548;2023-03-12T05:49:25;99608.66;;;1.26;85.71
32298;BME280;18782;48.984;8.548;2023-03-12T05:51:54;99607.06;;;1.28;85.92
32298;BME280;18782;48.984;8.548;2023-03-12T05:54:22;99609.00;;;1.33;86.07
32298;BME280;18782;48.984;8.548;2023-03-12T05:56:51;99595.59;;;1.35;86.37
32298;BME280;18782;48.984;8.548;2023-03-12T05:59:22;99588.69;;;1.33;86.17
32298;BME280;18782;48.984;8.548;2023-03-12T06:01:52;99580.16;;;1.30;86.44
32298;BME280;18782;48.984;8.548;2023-03-12T06:04:21;99585.22;;;1.30;86.59
32298;BME280;18782;48.984;8.548;2023-03-12T06:06:50;99588.69;;;1.33;86.80
32298;BME280;18782;48.984;8.548;2023-03-12T06:09:18;99582.75;;;1.32;86.73
32298;BME280;18782;48.984;8.548;2023-03-12T06:11:45;99593.91;;;1.36;87.64
32298;BME280;18782;48.984;8.548;2023-03-12T06:14:13;99574.44;;;1.35;87.74
32298;BME280;18782;48.984;8.548;2023-03-12T06:16:41;99587.09;;;1.35;87.87
32298;BME280;18782;48.984;8.548;2023-03-12T06:19:11;99572.41;;;1.44;87.29
32298;BME280;18782;48.984;8.548;2023-03-12T06:21:42;99575.19;;;1.48;88.29
32298;BME280;18782;48.984;8.548;2023-03-12T06:24:10;99571.94;;;1.51;88.00
32298;BME280;18782;48.984;8.548;2023-03-12T06:26:44;99578.09;;;1.71;89.98
32298;BME280;18782;48.984;8.548;2023-03-12T06:29:12;99584.53;;;1.80;88.67
32298;BME280;18782;48.984;8.548;2023-03-12T06:31:40;99585.41;;;1.81;87.64
32298;BME280;18782;48.984;8.548;2023-03-12T06:34:10;99570.34;;;1.84;87.48
32298;BME280;18782;48.984;8.548;2023-03-12T06:36:38;99574.69;;;1.87;86.78
32298;BME280;18782;48.984;8.548;2023-03-12T06:39:06;99570.41;;;1.86;87.07
32298;BME280;18782;48.984;8.548;2023-03-12T06:41:35;99569.78;;;1.90;87.32
32298;BME280;18782;48.984;8.548;2023-03-12T06:44:03;99581.84;;;1.94;86.65
32298;BME280;18782;48.984;8.548;2023-03-12T06:46:32;99588.66;;;1.95;86.14
32298;BME280;18782;48.984;8.548;2023-03-12T06:48:59;99587.25;;;2.00;86.54
32298;BME280;18782;48.984;8.548;2023-03-12T06:51:28;99584.94;;;2.04;85.27
32298;BME280;18782;48.984;8.548;2023-03-12T06:53:56;99583.66;;;2.13;85.21
32298;BME280;18782;48.984;8.548;2023-03-12T06:56:26;99591.69;;;2.20;84.37
32298;BME280;18782;48.984;8.548;2023-03-12T06:58:54;99583.41;;;2.24;84.38
32298;BME280;18782;48.984;8.548;2023-03-12T07:01:22;99587.16;;;2.31;83.77
32298;BME280;18782;48.984;8.548;2023-03-12T07:03:49;99592.94;;;2.45;83.60
32298;BME280;18782;48.984;8.548;2023-03-12T07:06:18;99580.78;;;2.55;82.65
32298;BME280;18782;48.984;8.548;2023-03-12T07:08:48;99595.47;;;2.61;82.50
32298;BME280;18782;48.984;8.548;2023-03-12T07:11:16;99594.19;;;2.69;82.84
32298;BME280;18782;48.984;8.548;2023-03-12T07:13:44;99601.16;;;2.73;81.58
32298;BME280;18782;48.984;8.548;2023-03-12T07:16:12;99593.66;;;2.76;81.69
32298;BME280;18782;48.984;8.548;2023-03-12T07:18:39;99605.63;;;2.77;81.75
32298;BME280;18782;48.984;8.548;2023-03-12T07:21:07;99593.03;;;2.80;83.15
32298;BME280;18782;48.984;8.548;2023-03-12T07:23:35;99589.69;;;2.81;83.02
32298;BME280;18782;48.984;8.548;2023-03-12T07:26:04;99601.63;;;2.82;81.86
32298;BME280;18782;48.984;8.548;2023-03-12T07:28:32;99610.19;;;2.84;81.66
32298;BME280;18782;48.984;8.548;2023-03-12T07:31:01;99605.75;;;2.80;80.50
32298;BME280;18782;48.984;8.548;2023-03-12T07:33:29;99621.06;;;2.98;87.79
32298;BME280;18782;48.984;8.548;2023-03-12T07:35:57;99629.25;;;2.93;83.04
32298;BME280;18782;48.984;8.548;2023-03-12T07:38:25;99626.78;;;2.94;81.80
32298;BME280;18782;48.984;8.548;2023-03-12T07:40:54;99627.06;;;3.00;81.49
32298;BME280;18782;48.984;8.548;2023-03-12T07:43:23;99630.44;;;3.17;83.04
32298;BME280;18782;48.984;8.548;2023-03-12T07:45:53;99619.09;;;3.28;83.89
32298;BME280;18782;48.984;8.548;2023-03-12T07:48:20;99623.53;;;3.32;82.84
32298;BME280;18782;48.984;8.548;2023-03-12T07:50:48;99621.16;;;3.35;83.03
32298;BME280;18782;48.984;8.548;2023-03-12T07:53:16;99627.56;;;3.45;83.48
32298;BME280;18782;48.984;8.548;2023-03-12T07:55:45;99617.56;;;3.50;84.65
32298;BME280;18782;48.984;8.548;2023-03-12T07:58:14;99618.59;;;3.53;84.82
32298;BME280;18782;48.984;8.548;2023-03-12T08:00:43;99624.28;;;3.48;84.24
32298;BME280;18782;48.984;8.548;2023-03-12T08:03:12;99611.13;;;3.56;84.47
32298;BME280;18782;48.984;8.548;2023-03-12T08:05:40;99617.50;;;3.66;84.43
32298;BME280;18782;48.984;8.548;2023-03-12T08:08:07;99622.28;;;3.60;83.75
32298;BME280;18782;48.984;8.548;2023-03-12T08:10:35;99607.81;;;3.59;84.78
32298;BME280;18782;48.984;8.548;2023-03-12T08:13:03;99614.00;;;3.64;85.72
32298;BME280;18782;48.984;8.548;2023-03-12T08:15:31;99629.56;;;3.70;85.44
32298;BME280;18782;48.984;8.548;2023-03-12T08:18:00;99612.53;;;3.87;86.15
32298;BME280;18782;48.984;8.548;2023-03-12T08:20:27;99621.84;;;3.86;86.21
32298;BME280;18782;48.984;8.548;2023-03-12T08:22:55;99626.72;;;3.82;85.46
32298;BME280;18782;48.984;8.548;2023-03-12T08:25:23;99633.91;;;3.90;86.07
32298;BME280;18782;48.984;8.548;2023-03-12T08:27:51;99634.31;;;4.00;86.50
32298;BME280;18782;48.984;8.548;2023-03-12T08:30:19;99628.41;;;4.01;86.73
32298;BME280;18782;48.984;8.548;2023-03-12T08:32:46;99629.50;;;4.06;86.74
32298;BME280;18782;48.984;8.548;2023-03-12T08:35:15;99634.00;;;4.11;87.51
32298;BME280;18782;48.984;8.548;2023-03-12T08:37:43;99637.13;;;4.06;88.14
32298;BME280;18782;48.984;8.548;2023-03-12T08:40:11;99634.84;;;4.12;88.27
32298;BME280;18782;48.984;8.548;2023-03-12T08:42:39;99640.25;;;4.18;87.67
32298;BME280;18782;48.984;8.548;2023-03-12T08:45:08;99639.34;;;4.17;87.90
32298;BME280;18782;48.984;8.548;2023-03-12T08:47:36;99636.91;;;4.19;88.37
32298;BME280;18782;48.984;8.548;2023-03-12T08:50:08;99641.84;;;4.16;88.56
32298;BME280;18782;48.984;8.548;2023-03-12T08:52:38;99640.25;;;4.18;89.34
32298;BME280;18782;48.984;8.548;2023-03-12T08:55:06;99646.41;;;4.04;89.22
32298;BME280;18782;48.984;8.548;2023-03-12T08:57:34;99620.94;;;4.04;90.68
32298;BME280;18782;48.984;8.548;2023-03-12T09:00:03;99644.22;;;3.93;89.99
32298;BME280;18782;48.984;8.548;2023-03-12T09:02:36;99632.44;;;3.96;92.49
32298;BME280;18782;48.984;8.548;2023-03-12T09:05:05;99647.66;;;3.94;91.59
32298;BME280;18782;48.984;8.548;2023-03-12T09:07:33;99635.72;;;3.93;92.77
32298;BME280;18782;48.984;8.548;2023-03-12T09:10:03;99639.69;;;4.06;93.68
32298;BME280;18782;48.984;8.548;2023-03-12T09:12:31;99638.50;;;4.17;93.25
32298;BME280;18782;48.984;8.548;2023-03-12T09:14:58;99636.72;;;4.34;93.15
32298;BME280;18782;48.984;8.548;2023-03-12T09:17:30;99639.84;;;4.48;93.02
32298;BME280;18782;48.984;8.548;2023-03-12T09:19:58;99644.69;;;4.61;92.80
32298;BME280;18782;48.984;8.548;2023-03-12T09:22:27;99640.00;;;4.70;92.59
32298;BME280;18782;48.984;8.548;2023-03-12T09:24:55;99651.97;;;4.72;92.55
32298;BME280;18782;48.984;8.548;2023-03-12T09:27:24;99654.50;;;4.92;92.17
32298;BME280;18782;48.984;8.548;2023-03-12T09:29:52;99641.97;;;4.96;91.47
32298;BME280;18782;48.984;8.548;2023-03-12T09:32:26;99645.94;;;5.11;91.80
32298;BME280;18782;48.984;8.548;2023-03-12T09:34:54;99648.28;;;5.27;92.19
32298;BME280;18782;48.984;8.548;2023-03-12T09:37:22;99647.94;;;5.18;90.08
32298;BME280;18782;48.984;8.548;2023-03-12T09:39:50;99651.66;;;5.26;91.35
32298;BME280;18782;48.984;8.548;2023-03-12T09:42:22;99637.53;;;5.34;90.78
32298;BME280;18782;48.984;8.548;2023-03-12T09:44:52;99633.88;;;5.28;91.77
32298;BME280;18782;48.984;8.548;2023-03-12T09:47:26;99645.94;;;5.32;92.84
32298;BME280;18782;48.984;8.548;2023-03-12T09:50:00;99648.75;;;5.38;94.61
32298;BME280;18782;48.984;8.548;2023-03-12T09:52:33;99641.13;;;5.60;95.01
32298;BME280;18782;48.984;8.548;2023-03-12T09:55:05;99645.56;;;5.64;95.24
32298;BME280;18782;48.984;8.548;2023-03-12T09:57:34;99647.56;;;5.73;95.09
32298;BME280;18782;48.984;8.548;2023-03-12T10:00:03;99653.31;;;5.90;94.86
32298;BME280;18782;48.984;8.548;2023-03-12T10:02:50;99649.59;;;6.03;91.70
32298;BME280;18782;48.984;8.548;2023-03-12T10:05:24;99651.00;;;6.17;91.72
32298;BME280;18782;48.984;8.548;2023-03-12T10:07:54;99655.28;;;6.18;92.31
32298;BME280;18782;48.984;8.548;2023-03-12T10:10:46;99659.31;;;6.35;91.83
32298;BME280;18782;48.984;8.548;2023-03-12T10:13:29;99657.06;;;6.43;91.04
32298;BME280;18782;48.984;8.548;2023-03-12T10:16:10;99658.56;;;6.62;92.07
32298;BME280;18782;48.984;8.548;2023-03-12T10:19:02;99659.72;;;6.70;92.27
32298;BME280;18782;48.984;8.548;2023-03-12T10:21:34;99658.03;;;6.94;97.08
32298;BME280;18782;48.984;8.548;2023-03-12T10:24:22;99670.25;;;7.55;100.00
32298;BME280;18782;48.984;8.548;2023-03-12T10:26:57;99668.16;;;7.98;98.50
32298;BME280;18782;48.984;8.548;2023-03-12T10:29:29;99680.34;;;8.33;97.11
32298;BME280;18782;48.984;8.548;2023-03-12T10:32:01;99663.00;;;8.53;98.89
32298;BME280;18782;48.984;8.548;2023-03-12T10:34:34;99669.44;;;8.71;95.98
32298;BME280;18782;48.984;8.548;2023-03-12T10:37:13;99667.28;;;8.86;95.83
32298;BME280;18782;48.984;8.548;2023-03-12T10:39:41;99656.53;;;8.99;95.28
32298;BME280;18782;48.984;8.548;2023-03-12T10:42:13;99668.78;;;9.44;92.75
32298;BME280;18782;48.984;8.548;2023-03-12T10:44:41;99663.75;;;9.49;92.99
32298;BME280;18782;48.984;8.548;2023-03-12T10:47:20;99676.94;;;9.62;91.82
32298;BME280;18782;48.984;8.548;2023-03-12T10:49:51;99666.84;;;9.70;93.20
32298;BME280;18782;48.984;8.548;2023-03-12T10:52:20;99672.63;;;9.98;93.57
32298;BME280;18782;48.984;8.548;2023-03-12T10:54:50;99668.34;;;9.98;90.01
32298;BME280;18782;48.984;8.548;2023-03-12T10:57:19;99665.75;;;10.36;92.08
32298;BME280;18782;48.984;8.548;2023-03-12T10:59:47;99672.53;;;10.75;86.70
32298;BME280;18782;48.984;8.548;2023-03-12T11:02:33;99665.50;;;10.66;87.17
32298;BME280;18782;48.984;8.548;2023-03-12T11:05:02;99673.63;;;10.43;86.08
32298;BME280;18782;48.984;8.548;2023-03-12T11:07:44;99670.59;;;10.64;85.95
32298;BME280;18782;48.984;8.548;2023-03-12T11:10:16;99664.50;;;10.59;85.79
32298;BME280;18782;48.984;8.548;2023-03-12T11:12:57;99659.72;;;10.78;85.19
32298;BME280;18782;48.984;8.548;2023-03-12T11:15:28;99659.88;;;11.35;85.15
32298;BME280;18782;48.984;8.548;2023-03-12T11:18:18;99649.84;;;11.50;82.11
32298;BME280;18782;48.984;8.548;2023-03-12T11:20:46;99658.88;;;11.26;82.89
32298;BME280;18782;48.984;8.548;2023-03-12T11:23:16;99651.38;;;11.41;82.31
32298;BME280;18782;48.984;8.548;2023-03-12T11:25:51;99650.78;;;11.57;82.59
32298;BME280;18782;48.984;8.548;2023-03-12T11:28:23;99647.94;;;11.95;80.37
32298;BME280;18782;48.984;8.548;2023-03-12T11:30:52;99649.78;;;12.02;78.95
32298;BME280;18782;48.984;8.548;2023-03-12T11:33:25;99658.56;;;12.16;81.04
32298;BME280;18782;48.984;8.548;2023-03-12T11:36:04;99675.13;;;12.34;78.18
32298;BME280;18782;48.984;8.548;2023-03-12T11:38:38;99664.97;;;12.47;79.60
32298;BME280;18782;48.984;8.548;2023-03-12T11:41:17;99657.44;;;12.64;77.22
32298;BME280;18782;48.984;8.548;2023-03-12T11:43:59;99664.63;;;12.18;79.08
32298;BME280;18782;48.984;8.548;2023-03-12T11:46:39;99658.81;;;12.35;79.27
32298;BME280;18782;48.984;8.548;2023-03-12T11:49:19;99654.03;;;12.68;78.47
32298;BME280;18782;48.984;8.548;2023-03-12T11:51:56;99660.31;;;12.93;77.58
32298;BME280;18782;48.984;8.548;2023-03-12T11:54:37;99643.03;;;12.86;78.11
32298;BME280;18782;48.984;8.548;2023-03-12T11:57:13;99661.03;;;13.68;74.13
32298;BME280;18782;48.984;8.548;2023-03-12T11:59:54;99653.94;;;13.44;75.21
32298;BME280;18782;48.984;8.548;2023-03-12T12:02:57;99669.63;;;12.74;76.21
32298;BME280;18782;48.984;8.548;2023-03-12T12:05:35;99648.09;;;12.75;76.65
32298;BME280;18782;48.984;8.548;2023-03-12T12:08:13;99659.22;;;12.71;77.29
32298;BME280;18782;48.984;8.548;2023-03-12T12:10:51;99645.78;;;12.25;78.75
32298;BME280;18782;48.984;8.548;2023-03-12T12:13:31;99656.16;;;12.32;78.77
32298;BME280;18782;48.984;8.548;2023-03-12T12:16:30;99636.16;;;12.14;79.38
32298;BME280;18782;48.984;8.548;2023-03-12T12:19:09;99649.78;;;12.05;79.54
32298;BME280;18782;48.984;8.548;2023-03-12T12:21:48;99635.31;;;12.13;80.03
32298;BME280;18782;48.984;8.548;2023-03-12T12:24:30;99648.25;;;12.16;79.47
32298;BME280;18782;48.984;8.548;2023-03-12T12:27:05;99622.53;;;12.22;79.59
32298;BME280;18782;48.984;8.548;2023-03-12T12:29:49;99626.25;;;12.46;79.22
32298;BME280;18782;48.984;8.548;2023-03-12T12:32:26;99633.91;;;12.40;79.36
32298;BME280;18782;48.984;8.548;2023-03-12T12:35:06;99645.81;;;12.28;79.38
32298;BME280;18782;48.984;8.548;2023-03-12T12:37:44;99647.81;;;12.51;79.43
32298;BME280;18782;48.984;8.548;2023-03-12T12:40:19;99643.25;;;12.32;79.19
32298;BME280;18782;48.984;8.548;2023-03-12T12:42:52;99635.06;;;12.66;79.40
32298;BME280;18782;48.984;8.548;2023-03-12T12:45:23;99637.97;;;12.95;77.62
32298;BME280;18782;48.984;8.548;2023-03-12T12:47:56;99629.31;;;12.92;77.51
32298;BME280;18782;48.984;8.548;2023-03-12T12:50:29;99634.53;;;12.98;77.66
32298;BME280;18782;48.984;8.548;2023-03-12T12:53:04;99629.16;;;12.75;77.24
32298;BME280;18782;48.984;8.548;2023-03-12T12:55:39;99627.97;;;13.29;75.91
32298;BME280;18782;48.984;8.548;2023-03-12T12:58:14;99631.16;;;14.21;71.77
32298;BME280;18782;48.984;8.548;2023-03-12T13:00:48;99632.28;;;15.02;68.66
32298;BME280;18782;48.984;8.548;2023-03-12T13:03:18;99637.41;;;14.63;67.31
32298;BME280;18782;48.984;8.548;2023-03-12T13:05:54;99641.31;;;13.86;68.27
32298;BME280;18782;48.984;8.548;2023-03-12T13:08:36;99627.34;;;13.62;69.66
32298;BME280;18782;48.984;8.548;2023-03-12T13:11:26;99628.50;;;12.99;72.83
32298;BME280;18782;48.984;8.548;2023-03-12T13:14:17;99635.13;;;12.69;73.42
32298;BME280;18782;48.984;8.548;2023-03-12T13:16:46;99625.66;;;12.70;73.86
32298;BME280;18782;48.984;8.548;2023-03-12T13:19:24;99648.84;;;12.65;73.29
32298;BME280;18782;48.984;8.548;2023-03-12T13:22:02;99624.47;;;12.42;74.10
32298;BME280;18782;48.984;8.548;2023-03-12T13:24:43;99615.91;;;12.46;73.16
32298;BME280;18782;48.984;8.548;2023-03-12T13:27:16;99620.28;;;12.51;73.59
32298;BME280;18782;48.984;8.548;2023-03-12T13:29:45;99615.97;;;12.52;74.68
32298;BME280;18782;48.984;8.548;2023-03-12T13:33:03;99621.31;;;12.67;74.16
32298;BME280;18782;48.984;8.548;2023-03-12T13:35:35;99621.13;;;13.34;71.73
32298;BME280;18782;48.984;8.548;2023-03-12T13:38:05;99611.69;;;13.38;71.91
32298;BME280;18782;48.984;8.548;2023-03-12T13:43:49;99612.91;;;13.96;70.56
32298;BME280;18782;48.984;8.548;2023-03-12T13:46:39;99595.75;;;14.15;68.83
32298;BME280;18782;48.984;8.548;2023-03-12T13:49:13;99586.38;;;14.43;70.63